La Dolce Vita — WDG8843 — position and weather

sailwx.info

Track history (hours):
 
Tides and Currents Weather Stations Pressure Air Temp Water Temp Dewpoint Dewpoint Depression Visibility Wind Speed Wind Dir Waves Ship Positions

La Dolce Vita

Owner: Gilbertson Jr, Robert B, Seattle, WA. More information available from US FCC via Universal Licensing System and Coast Guard Vessel Documentation Center.

Last reported at 2018-Feb-13 01:48 UTC. Time now 2018-Feb-19 04:09 UTC.
Position N 47°41' W 122°24'.

Length 9 m.

Type: Pleasure craft. MMSI: 367581630.

Date/timePositionNaut miles runAvg speedWind from/ knotsBaromVisibWave heightAir tempDewpointWater temp
2018-Feb-13 01:48N 47°41' W 122°24'0 0.6
2018-Feb-13 01:30N 47°41' W 122°24'1 2.7
2018-Feb-13 01:00N 47°40' W 122°26'2 2.8
2018-Feb-13 00:21N 47°39' W 122°27'1 3.7
2018-Feb-13 00:00N 47°38' W 122°26'2 4.4
2018-Feb-12 23:30N 47°37' W 122°29'1 2.0
2018-Feb-12 23:00N 47°36' W 122°28'1 2.7
2018-Feb-12 22:30N 47°35' W 122°28'1 1.2
2018-Feb-12 22:00N 47°34' W 122°27'1 2.6
2018-Feb-12 21:29N 47°35' W 122°27'3 5.8
2018-Feb-12 21:00N 47°38' W 122°26'2 4.7
2018-Feb-12 20:30N 47°40' W 122°27'1 2.5
2018-Feb-12 20:00N 47°41' W 122°25'0 0.6
2018-Feb-12 19:29N 47°41' W 122°24'0 0.0
2018-Feb-12 18:56N 47°41' W 122°24'0 0.0
2018-Feb-12 17:58N 47°41' W 122°24'0 0.0
2018-Feb-12 01:26N 47°41' W 122°24'2 3.6
2018-Feb-12 01:00N 47°42' W 122°25'4 6.9
2018-Feb-12 00:28N 47°46' W 122°27'3 5.7
2018-Feb-12 00:00N 47°48' W 122°30'0 0.1
2018-Feb-11 22:02N 47°48' W 122°30'0 1.3
2018-Feb-11 21:57N 47°48' W 122°30'2 4.4
2018-Feb-11 21:30N 47°46' W 122°28'2 3.8
2018-Feb-11 21:00N 47°45' W 122°26'2 4.8
2018-Feb-11 20:30N 47°44' W 122°29'2 3.9
2018-Feb-11 20:00N 47°42' W 122°27'2 3.9
2018-Feb-11 19:30N 47°41' W 122°25'1 0.0
2018-Feb-10 23:50N 47°41' W 122°24'0 0.7
2018-Feb-10 23:30N 47°41' W 122°25'2 4.5
2018-Feb-10 22:57N 47°39' W 122°27'2 4.5
2018-Feb-10 22:30N 47°37' W 122°26'1 2.5
2018-Feb-10 22:00N 47°37' W 122°24'1 2.1
2018-Feb-10 21:30N 47°38' W 122°25'3 5.5
2018-Feb-10 21:00N 47°40' W 122°28'2 4.8
2018-Feb-10 20:29N 47°42' W 122°24'  
2018-Feb-04 23:39N 47°41' W 122°24'0 2.5
2018-Feb-04 23:31N 47°41' W 122°24'2 4.4
2018-Feb-04 23:01N 47°43' W 122°25'2 4.6
2018-Feb-04 22:31N 47°46' W 122°26'2 3.8
2018-Feb-04 22:00N 47°47' W 122°24'0 0.1
2018-Feb-04 20:00N 47°47' W 122°25'2 4.9
2018-Feb-04 19:30N 47°45' W 122°26'3 5.0
2018-Feb-04 19:00N 47°42' W 122°25'2 0.1
2018-Feb-03 21:34N 47°41' W 122°24'0 0.0
2018-Feb-03 21:28N 47°41' W 122°24'1 2.0
2018-Feb-03 20:59N 47°42' W 122°25'2 3.4
2018-Feb-03 20:30N 47°42' W 122°27'2 4.0
2018-Feb-03 20:00N 47°41' W 122°30'  
Track history (hours):
 
Tides and Currents Weather Stations Pressure Air Temp Water Temp Dewpoint Dewpoint Depression Visibility Wind Speed Wind Dir Waves Ship Positions

La Dolce Vita

Owner: Gilbertson Jr, Robert B, Seattle, WA. More information available from US FCC via Universal Licensing System and Coast Guard Vessel Documentation Center.

Last reported at 2018-Feb-13 01:48 UTC. Time now 2018-Feb-19 04:09 UTC.
Position N 47°41' W 122°24'.

Length 9 m.

Type: Pleasure craft. MMSI: 367581630.

Date/timePositionNaut miles runAvg speedWind from/ knotsBaromVisibWave heightAir tempDewpointWater temp
2018-Feb-13 01:48N 47°41' W 122°24'0 0.6
2018-Feb-13 01:30N 47°41' W 122°24'1 2.7
2018-Feb-13 01:00N 47°40' W 122°26'2 2.8
2018-Feb-13 00:21N 47°39' W 122°27'1 3.7
2018-Feb-13 00:00N 47°38' W 122°26'2 4.4
2018-Feb-12 23:30N 47°37' W 122°29'1 2.0
2018-Feb-12 23:00N 47°36' W 122°28'1 2.7
2018-Feb-12 22:30N 47°35' W 122°28'1 1.2
2018-Feb-12 22:00N 47°34' W 122°27'1 2.6
2018-Feb-12 21:29N 47°35' W 122°27'3 5.8
2018-Feb-12 21:00N 47°38' W 122°26'2 4.7
2018-Feb-12 20:30N 47°40' W 122°27'1 2.5
2018-Feb-12 20:00N 47°41' W 122°25'0 0.6
2018-Feb-12 19:29N 47°41' W 122°24'0 0.0
2018-Feb-12 18:56N 47°41' W 122°24'0 0.0
2018-Feb-12 17:58N 47°41' W 122°24'0 0.0
2018-Feb-12 01:26N 47°41' W 122°24'2 3.6
2018-Feb-12 01:00N 47°42' W 122°25'4 6.9
2018-Feb-12 00:28N 47°46' W 122°27'3 5.7
2018-Feb-12 00:00N 47°48' W 122°30'0 0.1
2018-Feb-11 22:02N 47°48' W 122°30'0 1.3
2018-Feb-11 21:57N 47°48' W 122°30'2 4.4
2018-Feb-11 21:30N 47°46' W 122°28'2 3.8
2018-Feb-11 21:00N 47°45' W 122°26'2 4.8
2018-Feb-11 20:30N 47°44' W 122°29'2 3.9
2018-Feb-11 20:00N 47°42' W 122°27'2 3.9
2018-Feb-11 19:30N 47°41' W 122°25'1 0.0
2018-Feb-10 23:50N 47°41' W 122°24'0 0.7
2018-Feb-10 23:30N 47°41' W 122°25'2 4.5
2018-Feb-10 22:57N 47°39' W 122°27'2 4.5
2018-Feb-10 22:30N 47°37' W 122°26'1 2.5
2018-Feb-10 22:00N 47°37' W 122°24'1 2.1
2018-Feb-10 21:30N 47°38' W 122°25'3 5.5
2018-Feb-10 21:00N 47°40' W 122°28'2 4.8
2018-Feb-10 20:29N 47°42' W 122°24'  
2018-Feb-04 23:39N 47°41' W 122°24'0 2.5
2018-Feb-04 23:31N 47°41' W 122°24'2 4.4
2018-Feb-04 23:01N 47°43' W 122°25'2 4.6
2018-Feb-04 22:31N 47°46' W 122°26'2 3.8
2018-Feb-04 22:00N 47°47' W 122°24'0 0.1
2018-Feb-04 20:00N 47°47' W 122°25'2 4.9
2018-Feb-04 19:30N 47°45' W 122°26'3 5.0
2018-Feb-04 19:00N 47°42' W 122°25'2 0.1
2018-Feb-03 21:34N 47°41' W 122°24'0 0.0
2018-Feb-03 21:28N 47°41' W 122°24'1 2.0
2018-Feb-03 20:59N 47°42' W 122°25'2 3.4
2018-Feb-03 20:30N 47°42' W 122°27'2 4.0
2018-Feb-03 20:00N 47°41' W 122°30'  

Dump ship's entire track history